Details From LTCC - DIYARBAKIR
To LTCI - VAN
Flight Number -
Tags generated
Created
Modified
Stats Distance 156 nm / 289 km
Max Altitude 15,300 ft / 4,663 m
Waypoints 3
Social Downloads 1
Likes 0
Share VATSIM

Download

Looking for another format? Having issues loading an existing format? Contact us
Advertisement - Login to hide

Notes

Basic altitude profile: - Ascent Rate: 2500ft/min - Ascent Speed: 250kts - Cruise Altitude: 35000ft - Cruise Speed: 420kts - Descent Rate: 1500ft/min - Descent Speed: 250kts Options: - Use NATs: yes - Use PACOTS: yes - Use low airways: yes - Use high airways: yes

Route

LTCC SRT LTCI

ID Type Via Altitude Latitude Longitude Leg Dist Tot Dist Heading (true) Name
O LTCC APT - 0 ft / 0 m 37.89390˚ 40.20102˚ - 0 nm - DIYARBAKIR
SRT VOR - 15,300 ft / 4,663 m 37.90944˚ 41.88222˚ 79 nm 79 nm 89° / 90° SIIRT VOR-DME
O LTCI APT - 0 ft / 0 m 38.46822˚ 43.33230˚ 76 nm 155 nm 63° / 64° VAN

Altitude Profile

Advertisement - Login to hide

LTCC

Details ICAO LTCC (DIY)
Name DIYARBAKIR
Region Turkey
Timezone Europe/Istanbul (UTC+3.0)
Stats Elevation 2,251 ft / 686 m (AMSL)
Location 37.893898° 40.201017°
Runways 1
Magnetic Variation 5.639° E

METAR

LTCC 160450Z VRB02KT CAVOK M02/M04 Q1023 NOSIG

Decode

TAF

Not found

Departure Runways

ID Width Length Bearing (true) Bearing (mag) Surface Threshold Offset Overrun Length
16 148 ft / 45 m 11,663 ft / 3,555 m 162.66° 157.02° Concrete 0 ft / 0 m 507 ft / 155 m
34 148 ft / 45 m 11,663 ft / 3,555 m 342.67° 337.03° Concrete 0 ft / 0 m 495 ft / 151 m

LTCI

Details ICAO LTCI (VAN)
Name VAN
Region Turkey
Timezone Europe/Istanbul (UTC+3.0)
Stats Elevation 5,480 ft / 1,670 m (AMSL)
Location 38.468221° 43.332300°
Runways 1
Magnetic Variation 5.768° E

METAR

LTCI 160450Z 08003KT CAVOK M04/M06 Q1024 NOSIG

Decode

TAF

Not found

Destination Runways

ID Width Length Bearing (true) Bearing (mag) Surface Threshold Offset Overrun Length
03 148 ft / 45 m 9,018 ft / 2,749 m 37.57° 31.80° Asphalt 0 ft / 0 m 196 ft / 60 m
21 148 ft / 45 m 9,018 ft / 2,749 m 217.59° 211.82° Asphalt 0 ft / 0 m 196 ft / 60 m

Popular Alternatives